Time;durP1;ratioP1;P1;durP2;ratioP2;P2;SDS_P1;SDS_P2;PMS_P1;PMS_P2;Temp;Humidity;BMP_temperature;BMP_pressure;BME280_temperature;BME280_humidity;BME280_pressure;Samples;Min_cycle;Max_cycle;Signal;HPM_P1;HPM_P2
2023/01/14 00:01:15;;;;;;;;;;;18.40;88.90;;;;;;5096914;28;19908;-48
2023/01/14 00:03:41;;;;;;;;;;;18.40;89.00;;;;;;5096805;28;19908;-48
2023/01/14 00:06:07;;;;;;;;;;;18.40;88.90;;;;;;5096728;28;19919;-50
2023/01/14 00:08:33;;;;;;;;;;;18.40;89.00;;;;;;5097008;28;19920;-52
2023/01/14 00:11:03;;;;;;;;;;;18.40;89.10;;;;;;5096330;28;19909;-50
2023/01/14 00:13:28;;;;;;;;;;;18.30;89.10;;;;;;5096642;28;19909;-53
2023/01/14 00:15:55;;;;;;;;;;;18.30;89.20;;;;;;5096581;28;19916;-50
2023/01/14 00:18:21;;;;;;;;;;;18.40;89.20;;;;;;5096826;28;20271;-49
2023/01/14 00:21:00;;;;;;;;;;;18.40;89.20;;;;;;5096154;28;19915;-48
2023/01/14 00:23:26;;;;;;;;;;;18.40;89.20;;;;;;5096261;28;20385;-49
2023/01/14 00:25:52;;;;;;;;;;;18.40;89.00;;;;;;5096042;28;19956;-48
2023/01/14 00:28:17;;;;;;;;;;;18.50;89.10;;;;;;5096380;28;19919;-49
2023/01/14 00:30:43;;;;;;;;;;;18.50;88.90;;;;;;5096079;28;19912;-52
2023/01/14 00:33:08;;;;;;;;;;;18.50;88.90;;;;;;5095985;28;19913;-51
2023/01/14 00:35:34;;;;;;;;;;;18.50;88.80;;;;;;5096078;28;19921;-52
2023/01/14 00:37:59;;;;;;;;;;;18.50;88.90;;;;;;5096159;28;19914;-51
2023/01/14 00:40:25;;;;;;;;;;;18.50;89.10;;;;;;5078022;28;19908;-49
2023/01/14 00:42:50;;;;;;;;;;;18.50;89.30;;;;;;5095624;28;19934;-48
2023/01/14 00:45:16;;;;;;;;;;;18.50;89.20;;;;;;5095894;28;20318;-51
2023/01/14 00:47:41;;;;;;;;;;;18.40;89.80;;;;;;5095806;28;20389;-51
2023/01/14 00:50:07;;;;;;;;;;;18.40;89.40;;;;;;5095758;28;20068;-51
2023/01/14 00:52:32;;;;;;;;;;;18.40;89.60;;;;;;5095818;28;20403;-50
2023/01/14 00:54:58;;;;;;;;;;;18.40;89.60;;;;;;5095511;28;19912;-51
2023/01/14 00:57:23;;;;;;;;;;;18.40;89.80;;;;;;5095834;28;19915;-49
2023/01/14 00:59:49;;;;;;;;;;;18.40;89.80;;;;;;5095393;28;19916;-48
2023/01/14 01:02:14;;;;;;;;;;;18.40;89.70;;;;;;5094320;28;19915;-49
2023/01/14 01:04:39;;;;;;;;;;;18.40;89.80;;;;;;5095308;28;19908;-52
2023/01/14 01:07:05;;;;;;;;;;;18.40;89.80;;;;;;5095661;28;19934;-49
2023/01/14 01:09:31;;;;;;;;;;;18.40;89.70;;;;;;5095604;28;20343;-50
2023/01/14 01:11:56;;;;;;;;;;;18.30;89.70;;;;;;5095523;28;19909;-49
2023/01/14 01:14:22;;;;;;;;;;;18.40;89.70;;;;;;5095132;28;20007;-51
2023/01/14 01:16:47;;;;;;;;;;;18.40;89.70;;;;;;5095460;28;19916;-50
2023/01/14 01:19:12;;;;;;;;;;;18.50;89.50;;;;;;5095087;28;20385;-50
2023/01/14 01:21:38;;;;;;;;;;;18.60;89.30;;;;;;5095405;28;20080;-51
2023/01/14 01:24:04;;;;;;;;;;;18.70;88.80;;;;;;5095653;28;19951;-49
2023/01/14 01:26:29;;;;;;;;;;;18.80;89.00;;;;;;5095203;28;19920;-49
2023/01/14 01:28:56;;;;;;;;;;;18.80;88.20;;;;;;5095283;28;19913;-47
2023/01/14 01:31:21;;;;;;;;;;;18.90;88.30;;;;;;5095195;28;19914;-51
2023/01/14 01:33:47;;;;;;;;;;;18.90;88.20;;;;;;5095121;28;19990;-52
2023/01/14 01:36:14;;;;;;;;;;;18.80;88.20;;;;;;5094697;28;19921;-48
2023/01/14 01:38:40;;;;;;;;;;;18.80;88.20;;;;;;5095052;28;19945;-51
2023/01/14 01:41:05;;;;;;;;;;;18.80;88.40;;;;;;5094762;28;19908;-54
2023/01/14 01:43:32;;;;;;;;;;;18.70;88.30;;;;;;5094695;28;19909;-53
2023/01/14 01:45:57;;;;;;;;;;;18.60;88.60;;;;;;5094812;28;19920;-53
2023/01/14 01:48:26;;;;;;;;;;;18.60;88.50;;;;;;5094798;28;19916;-49
2023/01/14 01:50:57;;;;;;;;;;;18.60;88.70;;;;;;5094796;28;19908;-50
2023/01/14 01:53:23;;;;;;;;;;;18.60;88.70;;;;;;5094963;28;19908;-52
2023/01/14 01:55:52;;;;;;;;;;;18.50;88.90;;;;;;5095031;28;19931;-51
2023/01/14 01:58:19;;;;;;;;;;;18.50;88.90;;;;;;5094240;28;20394;-51
2023/01/14 02:00:44;;;;;;;;;;;18.50;89.00;;;;;;5094407;28;19915;-50
2023/01/14 02:03:13;;;;;;;;;;;18.40;89.10;;;;;;5094364;28;19908;-54
2023/01/14 02:05:38;;;;;;;;;;;18.40;89.20;;;;;;5076450;28;19961;-53
2023/01/14 02:08:04;;;;;;;;;;;18.40;89.20;;;;;;5094562;28;19965;-50
2023/01/14 02:10:48;;;;;;;;;;;18.40;89.30;;;;;;5094795;28;19916;-52
2023/01/14 02:13:28;;;;;;;;;;;18.40;89.30;;;;;;5094214;28;19908;-51
2023/01/14 02:16:20;;;;;;;;;;;18.50;89.30;;;;;;5094848;28;19916;-51
2023/01/14 02:19:06;;;;;;;;;;;18.50;89.10;;;;;;5091200;28;19995;-52
2023/01/14 02:21:35;;;;;;;;;;;18.70;88.80;;;;;;5083334;28;20263;-52
2023/01/14 02:24:20;;;;;;;;;;;18.70;88.60;;;;;;5075877;28;19908;-48
2023/01/14 02:27:01;;;;;;;;;;;18.70;88.40;;;;;;5094053;28;19966;-51
2023/01/14 02:29:35;;;;;;;;;;;18.70;88.50;;;;;;5094432;28;19919;-48
2023/01/14 02:32:01;;;;;;;;;;;18.70;88.50;;;;;;5094106;28;19908;-50
2023/01/14 02:34:35;;;;;;;;;;;18.70;88.50;;;;;;5094175;28;20018;-52
2023/01/14 02:37:09;;;;;;;;;;;18.70;88.60;;;;;;5094448;28;19989;-49
2023/01/14 02:39:37;;;;;;;;;;;18.60;88.60;;;;;;5093908;28;19915;-51
2023/01/14 02:45:06;;;;;;;;;;;18.60;88.80;;;;;;5093832;28;19934;-51
2023/01/14 02:47:32;;;;;;;;;;;18.50;88.80;;;;;;5094116;28;19955;-53
2023/01/14 02:49:58;;;;;;;;;;;18.50;88.80;;;;;;5094112;28;19915;-51
2023/01/14 02:52:25;;;;;;;;;;;18.50;88.90;;;;;;5094178;28;20018;-50
2023/01/14 02:54:54;;;;;;;;;;;18.50;89.00;;;;;;5094026;28;20406;-50
2023/01/14 02:57:40;;;;;;;;;;;18.50;88.90;;;;;;5093966;28;19912;-48
2023/01/14 03:00:08;;;;;;;;;;;18.40;89.10;;;;;;5075045;28;19908;-52
2023/01/14 03:02:52;;;;;;;;;;;18.40;89.10;;;;;;5093702;28;19908;-49
2023/01/14 03:05:36;;;;;;;;;;;18.40;89.20;;;;;;5093810;28;19912;-49
2023/01/14 03:08:05;;;;;;;;;;;18.40;89.40;;;;;;5093926;28;19912;-51
2023/01/14 03:10:42;;;;;;;;;;;18.30;89.40;;;;;;5093905;28;19908;-50
2023/01/14 03:13:20;;;;;;;;;;;18.30;89.50;;;;;;5093901;28;19909;-52
2023/01/14 03:15:54;;;;;;;;;;;18.30;89.50;;;;;;5093615;28;20373;-49
2023/01/14 03:18:38;;;;;;;;;;;18.40;89.50;;;;;;5093589;28;20003;-50
2023/01/14 03:21:15;;;;;;;;;;;18.50;89.30;;;;;;5094115;28;19999;-53
2023/01/14 03:23:45;;;;;;;;;;;18.60;88.80;;;;;;5093876;28;19908;-49
2023/01/14 03:26:11;;;;;;;;;;;18.80;88.50;;;;;;5096767;28;20278;-50
2023/01/14 03:28:38;;;;;;;;;;;18.80;88.20;;;;;;5097917;28;19913;-50
2023/01/14 03:31:12;;;;;;;;;;;18.80;88.10;;;;;;5097899;28;19908;-50
2023/01/14 03:33:40;;;;;;;;;;;18.80;88.20;;;;;;5097206;28;19909;-50
2023/01/14 03:36:06;;;;;;;;;;;18.80;88.20;;;;;;5097382;28;19926;-48
2023/01/14 03:38:54;;;;;;;;;;;18.80;88.20;;;;;;5097160;28;19994;-52
2023/01/14 03:44:25;;;;;;;;;;;18.70;88.70;;;;;;5097374;28;20370;-51
2023/01/14 03:46:51;;;;;;;;;;;18.70;88.70;;;;;;5086089;28;20494;-49
2023/01/14 03:49:16;;;;;;;;;;;18.60;88.70;;;;;;5097193;28;19908;-51
2023/01/14 03:51:47;;;;;;;;;;;18.60;88.90;;;;;;5096911;28;19947;-49
2023/01/14 03:54:26;;;;;;;;;;;18.50;88.90;;;;;;5096828;28;19912;-50
2023/01/14 03:56:54;;;;;;;;;;;18.50;89.10;;;;;;5078831;28;19909;-50
2023/01/14 03:59:26;;;;;;;;;;;18.50;88.90;;;;;;5096719;28;19914;-49
2023/01/14 04:01:52;;;;;;;;;;;18.40;89.00;;;;;;5078761;28;20418;-49
2023/01/14 04:04:19;;;;;;;;;;;18.40;89.20;;;;;;5096895;28;19914;-50
2023/01/14 04:06:44;;;;;;;;;;;18.40;89.30;;;;;;5096774;28;20019;-49
2023/01/14 04:09:10;;;;;;;;;;;18.40;89.30;;;;;;5096495;28;19959;-51
2023/01/14 04:11:36;;;;;;;;;;;18.40;89.30;;;;;;5078644;28;19958;-48
2023/01/14 04:16:46;;;;;;;;;;;18.40;89.40;;;;;;5096749;28;20324;-52
2023/01/14 04:19:11;;;;;;;;;;;18.40;89.60;;;;;;5096349;28;19909;-51
2023/01/14 04:21:36;;;;;;;;;;;18.40;89.40;;;;;;5096508;28;19915;-52
2023/01/14 04:24:02;;;;;;;;;;;18.60;89.20;;;;;;5096521;28;20275;-52
2023/01/14 04:26:28;;;;;;;;;;;18.80;88.70;;;;;;5096101;28;19959;-50
2023/01/14 04:28:56;;;;;;;;;;;18.90;88.10;;;;;;5096057;28;19912;-54
2023/01/14 04:31:22;;;;;;;;;;;19.00;87.70;;;;;;5096311;28;19908;-49
2023/01/14 04:33:47;;;;;;;;;;;19.10;87.70;;;;;;5095985;28;19909;-50
2023/01/14 04:36:13;;;;;;;;;;;19.10;87.70;;;;;;5095950;28;20318;-50
2023/01/14 04:38:38;;;;;;;;;;;19.00;87.80;;;;;;5095971;28;19918;-51
2023/01/14 04:41:04;;;;;;;;;;;19.00;88.00;;;;;;5096118;28;19908;-50
2023/01/14 04:43:29;;;;;;;;;;;18.90;88.00;;;;;;5095815;28;19943;-49
2023/01/14 04:45:55;;;;;;;;;;;18.90;88.10;;;;;;5095980;28;20270;-51
2023/01/14 04:48:22;;;;;;;;;;;18.80;88.20;;;;;;5095970;28;19912;-50
2023/01/14 04:50:50;;;;;;;;;;;18.70;88.30;;;;;;5095714;28;20266;-54
2023/01/14 04:53:15;;;;;;;;;;;18.70;89.10;;;;;;5095920;28;19915;-52
2023/01/14 04:55:42;;;;;;;;;;;18.70;88.70;;;;;;5095503;28;19908;-51
2023/01/14 04:58:08;;;;;;;;;;;18.60;88.80;;;;;;5077709;28;19908;-50
2023/01/14 05:00:34;;;;;;;;;;;18.60;88.80;;;;;;5095778;28;19945;-53
2023/01/14 05:03:04;;;;;;;;;;;18.60;88.80;;;;;;5095712;28;19966;-51
2023/01/14 05:05:29;;;;;;;;;;;18.60;88.80;;;;;;5095667;28;19916;-54
2023/01/14 05:07:55;;;;;;;;;;;18.50;88.90;;;;;;5095671;28;19919;-52
2023/01/14 05:10:20;;;;;;;;;;;18.50;89.00;;;;;;5095669;28;20076;-54
2023/01/14 05:12:58;;;;;;;;;;;18.50;88.90;;;;;;5095609;28;20380;-52
2023/01/14 05:15:27;;;;;;;;;;;18.40;89.10;;;;;;5095460;28;20347;-53
2023/01/14 05:17:53;;;;;;;;;;;18.40;89.10;;;;;;5094898;28;19915;-51
2023/01/14 05:20:19;;;;;;;;;;;18.50;89.30;;;;;;5095422;28;19912;-49
2023/01/14 05:22:44;;;;;;;;;;;18.50;89.10;;;;;;5077201;28;19908;-50
2023/01/14 05:25:10;;;;;;;;;;;18.50;89.10;;;;;;5095294;28;19912;-49
2023/01/14 05:27:35;;;;;;;;;;;18.60;88.90;;;;;;5077045;28;19912;-52
2023/01/14 05:30:02;;;;;;;;;;;18.60;88.80;;;;;;5095172;28;19912;-53
2023/01/14 05:32:28;;;;;;;;;;;18.60;88.80;;;;;;5095064;28;20307;-50
2023/01/14 05:34:53;;;;;;;;;;;18.60;88.80;;;;;;5094850;28;19912;-49
2023/01/14 05:37:19;;;;;;;;;;;18.60;88.80;;;;;;5094636;28;19924;-51
2023/01/14 05:39:44;;;;;;;;;;;18.50;89.00;;;;;;5095055;28;19908;-53
2023/01/14 05:47:38;;;;;;;;;;;18.50;89.40;;;;;;5094205;28;19919;-53
2023/01/14 05:50:04;;;;;;;;;;;18.40;89.40;;;;;;5094605;28;19908;-52
2023/01/14 05:52:29;;;;;;;;;;;18.40;89.60;;;;;;5094798;28;19912;-53
2023/01/14 05:54:55;;;;;;;;;;;18.40;89.80;;;;;;5094948;28;19969;-52
2023/01/14 05:57:20;;;;;;;;;;;18.40;89.80;;;;;;5094606;28;19954;-50
2023/01/14 05:59:45;;;;;;;;;;;18.40;89.80;;;;;;5094710;28;19915;-49
2023/01/14 06:07:39;;;;;;;;;;;18.30;89.90;;;;;;5094271;28;19966;-48
2023/01/14 06:10:05;;;;;;;;;;;18.30;89.80;;;;;;5094567;28;20362;-48
2023/01/14 06:12:57;;;;;;;;;;;18.30;89.80;;;;;;5094095;28;19932;-49
2023/01/14 06:15:21;;;;;;;;;;;18.30;89.90;;;;;;5093846;28;20346;-49
2023/01/14 06:17:56;;;;;;;;;;;18.30;89.90;;;;;;5094033;28;19908;-49
2023/01/14 06:20:22;;;;;;;;;;;18.30;89.90;;;;;;5094129;28;20037;-48
2023/01/14 06:22:47;;;;;;;;;;;18.30;89.80;;;;;;5076195;28;19969;-48
2023/01/14 06:25:13;;;;;;;;;;;18.40;89.80;;;;;;5093900;28;20392;-50
2023/01/14 06:27:38;;;;;;;;;;;18.50;89.50;;;;;;5093980;28;19923;-48
2023/01/14 06:30:04;;;;;;;;;;;18.60;89.20;;;;;;5093993;28;20053;-52
2023/01/14 06:32:29;;;;;;;;;;;18.70;89.00;;;;;;5094184;28;19912;-50
2023/01/14 06:34:55;;;;;;;;;;;18.70;88.70;;;;;;5093814;28;20369;-49
2023/01/14 06:37:20;;;;;;;;;;;18.70;88.60;;;;;;5093771;28;19963;-52
2023/01/14 06:39:46;;;;;;;;;;;18.70;88.60;;;;;;5076025;28;19909;-48
2023/01/14 06:42:11;;;;;;;;;;;18.70;88.70;;;;;;5093800;28;20410;-50
2023/01/14 06:44:37;;;;;;;;;;;18.70;88.80;;;;;;5094055;28;19961;-53
2023/01/14 06:47:02;;;;;;;;;;;18.60;88.70;;;;;;5093757;28;19919;-48
2023/01/14 06:49:27;;;;;;;;;;;18.60;88.90;;;;;;5094046;28;19966;-53
2023/01/14 06:51:53;;;;;;;;;;;18.50;89.10;;;;;;5094006;28;19908;-53
2023/01/14 06:54:18;;;;;;;;;;;18.50;89.30;;;;;;5093935;28;19912;-48
2023/01/14 06:56:44;;;;;;;;;;;18.50;89.30;;;;;;5092182;28;19916;-49
2023/01/14 06:59:09;;;;;;;;;;;18.40;89.40;;;;;;5094055;28;20365;-49
2023/01/14 07:01:35;;;;;;;;;;;18.40;89.70;;;;;;5097736;28;19944;-51
2023/01/14 07:04:00;;;;;;;;;;;18.50;89.70;;;;;;5097384;28;19947;-51
2023/01/14 07:06:26;;;;;;;;;;;18.40;89.70;;;;;;5097813;28;20372;-48
2023/01/14 07:08:51;;;;;;;;;;;18.40;89.80;;;;;;5098063;28;20304;-49
2023/01/14 07:11:17;;;;;;;;;;;18.40;89.70;;;;;;5097969;28;19908;-48
2023/01/14 07:13:42;;;;;;;;;;;18.40;89.80;;;;;;5097589;28;20000;-48
2023/01/14 07:16:08;;;;;;;;;;;18.40;89.80;;;;;;5097882;28;19908;-54
2023/01/14 07:18:33;;;;;;;;;;;18.40;89.80;;;;;;5099389;28;20373;-50
2023/01/14 07:20:59;;;;;;;;;;;18.50;89.70;;;;;;5097132;28;19973;-48
2023/01/14 07:23:25;;;;;;;;;;;18.70;89.50;;;;;;5096267;28;20314;-47
2023/01/14 07:25:55;;;;;;;;;;;18.80;89.00;;;;;;5097317;28;19918;-51
2023/01/14 07:28:21;;;;;;;;;;;18.90;88.60;;;;;;5097676;28;19919;-49
2023/01/14 07:30:48;;;;;;;;;;;19.00;88.30;;;;;;5106462;28;19912;-50
2023/01/14 07:33:13;;;;;;;;;;;19.00;88.30;;;;;;5107872;28;20350;-52
2023/01/14 07:35:39;;;;;;;;;;;19.00;88.30;;;;;;5099994;28;19962;-53
2023/01/14 07:38:04;;;;;;;;;;;18.90;88.40;;;;;;5099223;28;20002;-48
2023/01/14 07:40:29;;;;;;;;;;;18.90;88.50;;;;;;5107547;28;19982;-52
2023/01/14 07:42:58;;;;;;;;;;;18.90;88.50;;;;;;5101148;28;19930;-51
2023/01/14 07:45:24;;;;;;;;;;;18.80;88.60;;;;;;5107563;28;19919;-47
2023/01/14 07:47:50;;;;;;;;;;;18.80;88.80;;;;;;5098041;28;19920;-51
2023/01/14 07:50:15;;;;;;;;;;;18.70;88.90;;;;;;5100256;28;20351;-51
2023/01/14 07:52:41;;;;;;;;;;;18.70;89.00;;;;;;5095696;28;19994;-50
2023/01/14 07:55:06;;;;;;;;;;;18.70;89.10;;;;;;5097909;28;19927;-50
2023/01/14 07:57:32;;;;;;;;;;;18.70;89.20;;;;;;5096912;28;19974;-54
2023/01/14 07:59:57;;;;;;;;;;;18.60;89.30;;;;;;5093510;28;19908;-46
2023/01/14 08:02:23;;;;;;;;;;;18.50;89.40;;;;;;5107636;28;19998;-48
2023/01/14 08:04:48;;;;;;;;;;;18.50;89.50;;;;;;5094681;28;19923;-47
2023/01/14 08:07:14;;;;;;;;;;;18.40;89.80;;;;;;5093933;28;19924;-48
2023/01/14 08:09:39;;;;;;;;;;;18.40;89.60;;;;;;5095169;28;19912;-50
2023/01/14 08:12:05;;;;;;;;;;;18.40;89.30;;;;;;5101035;28;20274;-47
2023/01/14 08:14:30;;;;;;;;;;;18.40;89.80;;;;;;5108478;28;20359;-50
2023/01/14 08:16:56;;;;;;;;;;;18.40;89.90;;;;;;5104946;28;19962;-49
2023/01/14 08:19:21;;;;;;;;;;;18.40;90.00;;;;;;5097828;28;19914;-53
2023/01/14 08:21:47;;;;;;;;;;;18.50;90.00;;;;;;5098296;28;19908;-49
2023/01/14 08:24:12;;;;;;;;;;;18.50;89.90;;;;;;5096243;28;19922;-53
2023/01/14 08:26:38;;;;;;;;;;;18.60;89.70;;;;;;5101066;28;20347;-54
2023/01/14 08:29:04;;;;;;;;;;;18.60;89.70;;;;;;5095446;28;20378;-51
2023/01/14 08:31:29;;;;;;;;;;;18.60;89.10;;;;;;5094384;28;20292;-50
2023/01/14 08:33:55;;;;;;;;;;;18.60;89.50;;;;;;5096091;28;19911;-53
2023/01/14 08:36:20;;;;;;;;;;;18.60;88.10;;;;;;5096103;28;20335;-53
2023/01/14 08:38:49;;;;;;;;;;;18.50;86.00;;;;;;5095717;28;19912;-49
2023/01/14 08:41:16;;;;;;;;;;;18.40;81.10;;;;;;5094228;28;19920;-51
2023/01/14 08:43:42;;;;;;;;;;;18.30;85.00;;;;;;5095707;28;20279;-53
2023/01/14 08:46:08;;;;;;;;;;;18.30;87.80;;;;;;5096233;28;19916;-54
2023/01/14 08:48:35;;;;;;;;;;;18.30;88.30;;;;;;5104054;28;19954;-52
2023/01/14 08:51:01;;;;;;;;;;;18.30;88.50;;;;;;5093831;28;19913;-48
2023/01/14 08:53:27;;;;;;;;;;;18.40;88.40;;;;;;5094079;28;19908;-53
2023/01/14 08:55:55;;;;;;;;;;;18.30;88.40;;;;;;5093934;28;20358;-51
2023/01/14 08:58:20;;;;;;;;;;;18.30;88.30;;;;;;5091960;28;19920;-50
2023/01/14 09:00:46;;;;;;;;;;;18.30;88.40;;;;;;5076216;28;19908;-52
2023/01/14 09:03:11;;;;;;;;;;;18.30;88.40;;;;;;5095259;28;19912;-50
2023/01/14 09:05:37;;;;;;;;;;;18.30;88.40;;;;;;5077274;28;20366;-52
2023/01/14 09:19:01;;;;;;;;;;;18.20;89.00;;;;;;5094900;28;19915;-54
2023/01/14 09:21:26;;;;;;;;;;;18.20;88.90;;;;;;5094965;28;19912;-52
2023/01/14 09:23:52;;;;;;;;;;;18.10;88.90;;;;;;5094274;28;19908;-54
2023/01/14 09:26:20;;;;;;;;;;;18.20;88.80;;;;;;5094612;28;20335;-49
2023/01/14 09:28:46;;;;;;;;;;;18.10;88.80;;;;;;5095451;28;19919;-50
2023/01/14 09:31:11;;;;;;;;;;;18.10;88.90;;;;;;5094894;28;19908;-50
2023/01/14 09:33:37;;;;;;;;;;;18.10;88.90;;;;;;5076723;28;19908;-54
2023/01/14 09:36:02;;;;;;;;;;;18.10;89.10;;;;;;5094658;28;19946;-54
2023/01/14 09:38:28;;;;;;;;;;;18.10;89.10;;;;;;5095118;28;20355;-52
2023/01/14 09:40:54;;;;;;;;;;;18.00;89.20;;;;;;5094597;28;19961;-50
2023/01/14 09:43:20;;;;;;;;;;;18.00;89.20;;;;;;5094713;28;19941;-53
2023/01/14 09:45:48;;;;;;;;;;;18.00;89.30;;;;;;5094172;28;20416;-50
2023/01/14 09:48:19;;;;;;;;;;;18.00;89.80;;;;;;5076106;28;20271;-49
2023/01/14 09:50:44;;;;;;;;;;;18.00;89.30;;;;;;5094745;28;19911;-50
2023/01/14 09:53:28;;;;;;;;;;;18.00;89.40;;;;;;5094463;28;20316;-51
2023/01/14 09:56:07;;;;;;;;;;;18.00;89.30;;;;;;5093991;28;19998;-52
2023/01/14 09:58:35;;;;;;;;;;;18.00;89.20;;;;;;5094360;28;20245;-53
2023/01/14 10:01:08;;;;;;;;;;;18.10;89.20;;;;;;5075789;28;19957;-51
2023/01/14 10:03:34;;;;;;;;;;;18.00;89.30;;;;;;5076171;28;20434;-52
2023/01/14 10:06:02;;;;;;;;;;;17.90;89.30;;;;;;5094343;28;20022;-50
2023/01/14 10:08:30;;;;;;;;;;;17.90;89.30;;;;;;5094105;28;19916;-49
2023/01/14 10:10:56;;;;;;;;;;;18.00;89.30;;;;;;5094371;28;19951;-50
2023/01/14 10:13:31;;;;;;;;;;;18.00;89.30;;;;;;5093977;28;20313;-50
2023/01/14 10:16:08;;;;;;;;;;;17.90;89.40;;;;;;5094086;28;19931;-48
2023/01/14 10:18:56;;;;;;;;;;;17.90;89.40;;;;;;5093843;28;19927;-53
2023/01/14 10:21:27;;;;;;;;;;;17.90;89.40;;;;;;5093720;28;19915;-49
2023/01/14 10:23:53;;;;;;;;;;;17.90;89.30;;;;;;5093945;28;19916;-51
2023/01/14 10:26:19;;;;;;;;;;;17.90;89.40;;;;;;5093760;28;19911;-54
2023/01/14 10:28:50;;;;;;;;;;;17.90;89.40;;;;;;5093645;28;20286;-49
2023/01/14 10:31:18;;;;;;;;;;;17.90;89.30;;;;;;5093991;28;19914;-48
2023/01/14 10:33:45;;;;;;;;;;;17.90;89.40;;;;;;5093674;28;20009;-49
2023/01/14 10:36:14;;;;;;;;;;;17.90;89.40;;;;;;5093632;28;19920;-47
2023/01/14 10:38:42;;;;;;;;;;;17.90;89.40;;;;;;5093623;28;19919;-52
2023/01/14 10:41:08;;;;;;;;;;;17.90;89.50;;;;;;5093874;28;20335;-51
2023/01/14 10:43:39;;;;;;;;;;;17.90;89.50;;;;;;5093478;28;19947;-48
2023/01/14 10:46:05;;;;;;;;;;;17.90;89.50;;;;;;5093413;28;19912;-53
2023/01/14 10:48:45;;;;;;;;;;;17.90;89.50;;;;;;5075534;28;19912;-54
2023/01/14 10:51:28;;;;;;;;;;;17.90;89.50;;;;;;5093664;28;19916;-51
2023/01/14 10:54:08;;;;;;;;;;;17.90;89.50;;;;;;5093485;28;19908;-47
2023/01/14 10:56:33;;;;;;;;;;;17.80;89.50;;;;;;5093498;28;20003;-51
2023/01/14 10:58:59;;;;;;;;;;;17.90;89.50;;;;;;5093672;28;19966;-48
2023/01/14 11:01:25;;;;;;;;;;;17.80;89.60;;;;;;5075484;28;19909;-53
2023/01/14 11:03:51;;;;;;;;;;;17.80;89.70;;;;;;5093289;28;19915;-47
2023/01/14 11:06:17;;;;;;;;;;;17.80;89.70;;;;;;5093294;28;19916;-52
2023/01/14 11:08:50;;;;;;;;;;;17.80;89.80;;;;;;5093441;28;19912;-51
2023/01/14 11:11:19;;;;;;;;;;;17.80;89.90;;;;;;5093517;28;19908;-53
2023/01/14 11:13:48;;;;;;;;;;;17.80;89.90;;;;;;5093065;28;19915;-52
2023/01/14 11:16:27;;;;;;;;;;;17.80;89.90;;;;;;5093383;28;19931;-48
2023/01/14 11:19:03;;;;;;;;;;;17.80;89.80;;;;;;5093499;28;19977;-52
2023/01/14 11:21:35;;;;;;;;;;;17.80;89.80;;;;;;5093257;28;19908;-53
2023/01/14 11:24:02;;;;;;;;;;;17.80;89.80;;;;;;5093332;28;19908;-51
2023/01/14 11:26:32;;;;;;;;;;;17.80;89.70;;;;;;5093167;28;19913;-50
2023/01/14 11:29:05;;;;;;;;;;;17.80;89.70;;;;;;5093491;28;20274;-53
2023/01/14 11:31:35;;;;;;;;;;;17.80;89.60;;;;;;5093474;28;19922;-53
2023/01/14 11:34:01;;;;;;;;;;;17.80;89.60;;;;;;5075116;28;19908;-50
2023/01/14 11:36:28;;;;;;;;;;;17.80;89.60;;;;;;5093039;28;19924;-52
2023/01/14 11:38:56;;;;;;;;;;;17.80;89.60;;;;;;5092984;28;20013;-48
2023/01/14 11:41:48;;;;;;;;;;;17.80;89.60;;;;;;5092999;28;20003;-52
2023/01/14 11:44:13;;;;;;;;;;;17.80;89.60;;;;;;5070357;28;20266;-48
2023/01/14 11:46:42;;;;;;;;;;;17.80;89.80;;;;;;5095631;28;19923;-52
2023/01/14 11:49:18;;;;;;;;;;;17.80;89.80;;;;;;5096909;28;19966;-50
2023/01/14 11:51:57;;;;;;;;;;;17.80;89.80;;;;;;5097173;28;19916;-48
2023/01/14 11:54:23;;;;;;;;;;;17.80;89.80;;;;;;5078499;28;19999;-52
2023/01/14 11:56:48;;;;;;;;;;;17.80;89.80;;;;;;5096459;28;19944;-50
2023/01/14 11:59:16;;;;;;;;;;;17.80;89.80;;;;;;5096378;28;19959;-51
2023/01/14 12:01:45;;;;;;;;;;;17.70;89.80;;;;;;5096387;28;19908;-50
2023/01/14 12:04:19;;;;;;;;;;;17.80;89.80;;;;;;5096128;28;19912;-49
2023/01/14 12:06:44;;;;;;;;;;;17.80;89.80;;;;;;5096382;28;19919;-52
2023/01/14 12:09:12;;;;;;;;;;;17.80;89.80;;;;;;5096138;28;20285;-52
2023/01/14 12:11:45;;;;;;;;;;;17.70;89.80;;;;;;5096228;28;20359;-50
2023/01/14 12:17:21;;;;;;;;;;;17.70;90.10;;;;;;5050967;28;19915;-50
2023/01/14 12:19:50;;;;;;;;;;;17.70;89.80;;;;;;5096708;28;19961;-50
2023/01/14 12:22:18;;;;;;;;;;;17.70;89.80;;;;;;5095974;28;19908;-52
2023/01/14 12:24:46;;;;;;;;;;;17.70;89.80;;;;;;5096460;28;20004;-48
2023/01/14 12:27:43;;;;;;;;;;;17.70;89.80;;;;;;5095947;28;20045;-52
2023/01/14 12:30:09;;;;;;;;;;;17.70;89.80;;;;;;5096079;28;20045;-50
2023/01/14 12:32:35;;;;;;;;;;;17.70;89.90;;;;;;5096534;28;19945;-51
2023/01/14 12:35:02;;;;;;;;;;;17.70;89.80;;;;;;5096092;28;20053;-51
2023/01/14 12:37:31;;;;;;;;;;;17.70;89.80;;;;;;5096130;28;20071;-52
2023/01/14 12:45:45;;;;;;;;;;;17.80;89.80;;;;;;5095625;28;19919;-51
2023/01/14 12:48:15;;;;;;;;;;;17.70;89.80;;;;;;5095491;28;19912;-52
2023/01/14 12:51:03;;;;;;;;;;;17.70;89.90;;;;;;5095189;28;20271;-49
2023/01/14 12:53:31;;;;;;;;;;;17.70;89.90;;;;;;5082218;28;19916;-49
2023/01/14 12:55:59;;;;;;;;;;;17.70;89.80;;;;;;5095618;28;19947;-50
2023/01/14 12:58:27;;;;;;;;;;;17.70;89.80;;;;;;5095138;28;20053;-53
2023/01/14 13:00:59;;;;;;;;;;;17.70;89.80;;;;;;5095161;28;19913;-51
2023/01/14 13:03:28;;;;;;;;;;;17.70;89.80;;;;;;5077156;28;20273;-54
2023/01/14 13:05:53;;;;;;;;;;;17.70;89.90;;;;;;5095205;28;19912;-51
2023/01/14 13:08:25;;;;;;;;;;;17.70;89.80;;;;;;5095083;28;20460;-52
2023/01/14 13:11:00;;;;;;;;;;;17.70;90.10;;;;;;5094984;28;20263;-52
2023/01/14 13:13:26;;;;;;;;;;;17.70;89.90;;;;;;5076532;28;20363;-51
2023/01/14 13:15:51;;;;;;;;;;;17.70;89.90;;;;;;5095398;28;19908;-52
2023/01/14 13:18:32;;;;;;;;;;;17.70;89.90;;;;;;5094750;28;20315;-51
2023/01/14 13:20:57;;;;;;;;;;;17.70;89.80;;;;;;5094831;28;20290;-52
2023/01/14 13:23:35;;;;;;;;;;;17.70;89.70;;;;;;5076927;28;20027;-49
2023/01/14 13:26:01;;;;;;;;;;;17.70;89.80;;;;;;5076531;28;19912;-52
2023/01/14 13:28:26;;;;;;;;;;;17.70;89.90;;;;;;5095101;28;19913;-52
2023/01/14 13:31:12;;;;;;;;;;;17.70;89.90;;;;;;5094982;28;19908;-50
2023/01/14 13:33:39;;;;;;;;;;;17.70;89.90;;;;;;5094530;28;19908;-52
2023/01/14 13:36:11;;;;;;;;;;;17.70;90.00;;;;;;5094413;28;19965;-53
2023/01/14 13:38:39;;;;;;;;;;;17.60;89.90;;;;;;5094351;28;19916;-53
2023/01/14 13:41:08;;;;;;;;;;;17.60;89.90;;;;;;5094562;28;19908;-52
2023/01/14 13:43:38;;;;;;;;;;;17.60;89.90;;;;;;5094681;28;20349;-51
2023/01/14 13:46:05;;;;;;;;;;;17.60;89.90;;;;;;5094406;28;19959;-51
2023/01/14 13:48:34;;;;;;;;;;;17.60;89.90;;;;;;5094422;28;19912;-50
2023/01/14 13:51:18;;;;;;;;;;;17.60;89.90;;;;;;5094252;28;19979;-50
2023/01/14 13:54:03;;;;;;;;;;;17.60;89.90;;;;;;5094148;28;19908;-50
2023/01/14 13:56:29;;;;;;;;;;;17.60;89.90;;;;;;5094267;28;20002;-50
2023/01/14 13:58:56;;;;;;;;;;;17.60;89.90;;;;;;5094368;28;19908;-51
2023/01/14 14:01:26;;;;;;;;;;;17.60;89.90;;;;;;5094317;28;19923;-48
2023/01/14 14:04:04;;;;;;;;;;;17.70;89.80;;;;;;5094384;28;19961;-50
2023/01/14 14:06:31;;;;;;;;;;;17.70;89.80;;;;;;5094206;28;19923;-52
2023/01/14 14:09:09;;;;;;;;;;;17.60;89.70;;;;;;5075570;28;19916;-50
2023/01/14 14:11:39;;;;;;;;;;;17.70;89.90;;;;;;5093675;28;19981;-54
2023/01/14 14:14:06;;;;;;;;;;;17.60;89.80;;;;;;5093691;28;19909;-52
2023/01/14 14:16:46;;;;;;;;;;;17.60;89.80;;;;;;5093886;28;19914;-51
2023/01/14 14:19:28;;;;;;;;;;;17.70;89.90;;;;;;5093601;28;19908;-53
2023/01/14 14:21:57;;;;;;;;;;;17.60;89.80;;;;;;5093750;28;19908;-50
2023/01/14 14:24:38;;;;;;;;;;;17.60;89.90;;;;;;5093604;28;19955;-48
2023/01/14 14:27:10;;;;;;;;;;;17.60;89.90;;;;;;5075686;28;19939;-51
2023/01/14 14:29:39;;;;;;;;;;;17.60;89.90;;;;;;5093508;28;19912;-50
2023/01/14 14:32:08;;;;;;;;;;;17.60;89.80;;;;;;5093591;28;20363;-51
2023/01/14 14:34:33;;;;;;;;;;;17.60;89.80;;;;;;5093676;28;20417;-54
2023/01/14 14:37:02;;;;;;;;;;;17.60;89.80;;;;;;5075406;28;20034;-53
2023/01/14 14:39:31;;;;;;;;;;;17.60;89.90;;;;;;5093716;28;19950;-50
2023/01/14 14:41:57;;;;;;;;;;;17.60;89.90;;;;;;5093741;28;19908;-53
2023/01/14 14:44:24;;;;;;;;;;;17.60;89.80;;;;;;5093482;28;20385;-52
2023/01/14 14:46:49;;;;;;;;;;;17.60;89.80;;;;;;5093564;28;19923;-49
2023/01/14 14:49:19;;;;;;;;;;;17.60;89.80;;;;;;5093838;28;19912;-54
2023/01/14 14:51:45;;;;;;;;;;;17.60;89.80;;;;;;5093741;28;19908;-52
2023/01/14 14:54:23;;;;;;;;;;;17.60;89.90;;;;;;5093964;28;19909;-53
2023/01/14 14:56:48;;;;;;;;;;;17.60;89.90;;;;;;5093404;28;20266;-51
2023/01/14 14:59:14;;;;;;;;;;;17.60;89.80;;;;;;5093455;28;19908;-53
2023/01/14 15:01:39;;;;;;;;;;;17.60;89.90;;;;;;5093629;28;19912;-53
2023/01/14 15:04:07;;;;;;;;;;;17.60;89.90;;;;;;5093367;28;20324;-54